sensor_id;sensor_type;location;lat;lon;timestamp;temperature;humidity
25208;DHT22;13153;52.316;21.166;2022-10-23T00:01:13;12.90;99.90
25208;DHT22;13153;52.316;21.166;2022-10-23T00:03:41;12.90;99.90
25208;DHT22;13153;52.316;21.166;2022-10-23T00:06:07;12.90;99.90
25208;DHT22;13153;52.316;21.166;2022-10-23T00:08:34;12.90;99.90
25208;DHT22;13153;52.316;21.166;2022-10-23T00:11:00;12.90;99.90
25208;DHT22;13153;52.316;21.166;2022-10-23T00:13:30;12.90;99.90
25208;DHT22;13153;52.316;21.166;2022-10-23T00:15:55;12.90;99.90
25208;DHT22;13153;52.316;21.166;2022-10-23T00:18:21;12.90;99.90
25208;DHT22;13153;52.316;21.166;2022-10-23T00:20:47;12.90;99.90
25208;DHT22;13153;52.316;21.166;2022-10-23T00:23:13;12.90;99.90
25208;DHT22;13153;52.316;21.166;2022-10-23T00:25:40;12.90;99.90
25208;DHT22;13153;52.316;21.166;2022-10-23T00:28:06;12.90;99.90
25208;DHT22;13153;52.316;21.166;2022-10-23T00:30:32;12.90;99.90
25208;DHT22;13153;52.316;21.166;2022-10-23T00:32:58;12.90;99.90
25208;DHT22;13153;52.316;21.166;2022-10-23T00:35:23;12.90;99.90
25208;DHT22;13153;52.316;21.166;2022-10-23T00:37:49;12.90;99.90
25208;DHT22;13153;52.316;21.166;2022-10-23T00:40:15;12.90;99.90
25208;DHT22;13153;52.316;21.166;2022-10-23T00:42:41;12.90;99.90
25208;DHT22;13153;52.316;21.166;2022-10-23T00:48:01;12.90;99.90
25208;DHT22;13153;52.316;21.166;2022-10-23T00:50:31;12.90;99.90
25208;DHT22;13153;52.316;21.166;2022-10-23T00:53:00;12.90;99.90
25208;DHT22;13153;52.316;21.166;2022-10-23T00:55:29;12.90;99.90
25208;DHT22;13153;52.316;21.166;2022-10-23T00:57:57;12.90;99.90
25208;DHT22;13153;52.316;21.166;2022-10-23T01:00:25;12.90;99.90
25208;DHT22;13153;52.316;21.166;2022-10-23T01:02:54;12.90;99.90
25208;DHT22;13153;52.316;21.166;2022-10-23T01:05:26;12.90;99.90
25208;DHT22;13153;52.316;21.166;2022-10-23T01:08:04;12.90;99.90
25208;DHT22;13153;52.316;21.166;2022-10-23T01:11:19;12.90;99.90
25208;DHT22;13153;52.316;21.166;2022-10-23T01:25:00;12.90;99.90
25208;DHT22;13153;52.316;21.166;2022-10-23T01:27:39;12.90;99.90
25208;DHT22;13153;52.316;21.166;2022-10-23T01:30:13;12.90;99.90
25208;DHT22;13153;52.316;21.166;2022-10-23T01:33:00;12.90;99.90
25208;DHT22;13153;52.316;21.166;2022-10-23T01:35:34;12.90;99.90
25208;DHT22;13153;52.316;21.166;2022-10-23T01:40:49;12.90;99.90
25208;DHT22;13153;52.316;21.166;2022-10-23T01:43:33;12.90;99.90
25208;DHT22;13153;52.316;21.166;2022-10-23T01:46:25;12.90;99.90
25208;DHT22;13153;52.316;21.166;2022-10-23T01:48:53;12.90;99.90
25208;DHT22;13153;52.316;21.166;2022-10-23T01:51:24;12.90;99.90
25208;DHT22;13153;52.316;21.166;2022-10-23T01:53:57;12.90;99.90
25208;DHT22;13153;52.316;21.166;2022-10-23T01:56:31;12.90;99.90
25208;DHT22;13153;52.316;21.166;2022-10-23T01:59:04;13.00;99.90
25208;DHT22;13153;52.316;21.166;2022-10-23T02:01:36;13.00;99.90
25208;DHT22;13153;52.316;21.166;2022-10-23T02:04:08;13.00;99.90
25208;DHT22;13153;52.316;21.166;2022-10-23T02:06:37;13.00;99.90
25208;DHT22;13153;52.316;21.166;2022-10-23T02:09:03;13.00;99.90
25208;DHT22;13153;52.316;21.166;2022-10-23T02:11:31;13.00;99.90
25208;DHT22;13153;52.316;21.166;2022-10-23T02:16:54;13.00;99.90
25208;DHT22;13153;52.316;21.166;2022-10-23T02:23:34;13.00;99.90
25208;DHT22;13153;52.316;21.166;2022-10-23T02:26:23;13.00;99.90
25208;DHT22;13153;52.316;21.166;2022-10-23T02:29:17;13.00;99.90
25208;DHT22;13153;52.316;21.166;2022-10-23T02:31:48;13.00;99.90
25208;DHT22;13153;52.316;21.166;2022-10-23T02:34:14;13.10;99.90
25208;DHT22;13153;52.316;21.166;2022-10-23T02:36:40;13.00;99.90
25208;DHT22;13153;52.316;21.166;2022-10-23T02:39:07;13.00;99.90
25208;DHT22;13153;52.316;21.166;2022-10-23T02:41:56;13.00;99.90
25208;DHT22;13153;52.316;21.166;2022-10-23T02:47:59;13.10;99.90
25208;DHT22;13153;52.316;21.166;2022-10-23T02:50:53;13.10;99.90
25208;DHT22;13153;52.316;21.166;2022-10-23T02:57:03;13.00;99.90
25208;DHT22;13153;52.316;21.166;2022-10-23T02:59:43;13.10;99.90
25208;DHT22;13153;52.316;21.166;2022-10-23T03:02:22;13.10;99.90
25208;DHT22;13153;52.316;21.166;2022-10-23T03:04:51;13.10;99.90
25208;DHT22;13153;52.316;21.166;2022-10-23T03:07:20;13.10;99.90
25208;DHT22;13153;52.316;21.166;2022-10-23T03:09:46;13.10;99.90
25208;DHT22;13153;52.316;21.166;2022-10-23T03:12:15;13.10;99.90
25208;DHT22;13153;52.316;21.166;2022-10-23T03:14:41;13.10;99.90
25208;DHT22;13153;52.316;21.166;2022-10-23T03:17:08;13.10;99.90
25208;DHT22;13153;52.316;21.166;2022-10-23T03:19:34;13.10;99.90
25208;DHT22;13153;52.316;21.166;2022-10-23T03:22:00;13.10;99.90
25208;DHT22;13153;52.316;21.166;2022-10-23T03:24:26;13.10;99.90
25208;DHT22;13153;52.316;21.166;2022-10-23T03:26:51;13.10;99.90
25208;DHT22;13153;52.316;21.166;2022-10-23T03:29:17;13.00;99.90
25208;DHT22;13153;52.316;21.166;2022-10-23T03:31:43;13.10;99.90
25208;DHT22;13153;52.316;21.166;2022-10-23T03:34:09;13.10;99.90
25208;DHT22;13153;52.316;21.166;2022-10-23T03:36:36;13.10;99.90
25208;DHT22;13153;52.316;21.166;2022-10-23T03:39:02;13.10;99.90
25208;DHT22;13153;52.316;21.166;2022-10-23T03:41:29;13.10;99.90
25208;DHT22;13153;52.316;21.166;2022-10-23T03:43:55;13.10;99.90
25208;DHT22;13153;52.316;21.166;2022-10-23T03:46:21;13.10;99.90
25208;DHT22;13153;52.316;21.166;2022-10-23T03:48:47;13.10;99.90
25208;DHT22;13153;52.316;21.166;2022-10-23T03:51:13;13.10;99.90
25208;DHT22;13153;52.316;21.166;2022-10-23T03:53:39;13.10;99.90
25208;DHT22;13153;52.316;21.166;2022-10-23T03:56:05;13.10;99.90
25208;DHT22;13153;52.316;21.166;2022-10-23T03:58:31;13.00;99.90
25208;DHT22;13153;52.316;21.166;2022-10-23T04:00:57;13.00;99.90
25208;DHT22;13153;52.316;21.166;2022-10-23T04:03:23;13.00;99.90
25208;DHT22;13153;52.316;21.166;2022-10-23T04:05:48;12.90;99.90
25208;DHT22;13153;52.316;21.166;2022-10-23T04:08:14;12.90;99.90
25208;DHT22;13153;52.316;21.166;2022-10-23T04:10:40;12.90;99.90
25208;DHT22;13153;52.316;21.166;2022-10-23T04:13:06;12.90;99.90
25208;DHT22;13153;52.316;21.166;2022-10-23T04:15:32;13.00;99.90
25208;DHT22;13153;52.316;21.166;2022-10-23T04:17:57;12.90;99.90
25208;DHT22;13153;52.316;21.166;2022-10-23T04:20:23;13.00;99.90
25208;DHT22;13153;52.316;21.166;2022-10-23T04:22:49;13.00;99.90
25208;DHT22;13153;52.316;21.166;2022-10-23T04:25:15;13.00;99.90
25208;DHT22;13153;52.316;21.166;2022-10-23T04:27:41;13.00;99.90
25208;DHT22;13153;52.316;21.166;2022-10-23T04:30:07;13.00;99.90
25208;DHT22;13153;52.316;21.166;2022-10-23T04:32:34;13.00;99.90
25208;DHT22;13153;52.316;21.166;2022-10-23T04:35:00;13.00;99.90
25208;DHT22;13153;52.316;21.166;2022-10-23T04:37:26;13.00;99.90
25208;DHT22;13153;52.316;21.166;2022-10-23T04:39:52;13.00;99.90
25208;DHT22;13153;52.316;21.166;2022-10-23T04:42:18;13.00;99.90
25208;DHT22;13153;52.316;21.166;2022-10-23T04:44:44;13.00;99.90
25208;DHT22;13153;52.316;21.166;2022-10-23T04:47:10;13.00;99.90
25208;DHT22;13153;52.316;21.166;2022-10-23T04:49:36;13.00;99.90
25208;DHT22;13153;52.316;21.166;2022-10-23T04:52:02;13.00;99.90
25208;DHT22;13153;52.316;21.166;2022-10-23T04:54:28;13.00;99.90
25208;DHT22;13153;52.316;21.166;2022-10-23T04:56:53;13.00;99.90
25208;DHT22;13153;52.316;21.166;2022-10-23T04:59:19;13.00;99.90
25208;DHT22;13153;52.316;21.166;2022-10-23T05:01:45;12.90;99.90
25208;DHT22;13153;52.316;21.166;2022-10-23T05:04:11;12.90;99.90
25208;DHT22;13153;52.316;21.166;2022-10-23T05:06:38;12.90;99.90
25208;DHT22;13153;52.316;21.166;2022-10-23T05:09:04;12.90;99.90
25208;DHT22;13153;52.316;21.166;2022-10-23T05:11:29;12.90;99.90
25208;DHT22;13153;52.316;21.166;2022-10-23T05:13:55;12.90;99.90
25208;DHT22;13153;52.316;21.166;2022-10-23T05:19:41;12.90;99.90
25208;DHT22;13153;52.316;21.166;2022-10-23T05:22:13;12.90;99.90
25208;DHT22;13153;52.316;21.166;2022-10-23T05:24:39;12.90;99.90
25208;DHT22;13153;52.316;21.166;2022-10-23T05:27:05;12.90;99.90
25208;DHT22;13153;52.316;21.166;2022-10-23T05:29:31;12.90;99.90
25208;DHT22;13153;52.316;21.166;2022-10-23T05:32:00;12.90;99.90
25208;DHT22;13153;52.316;21.166;2022-10-23T05:34:32;12.90;99.90
25208;DHT22;13153;52.316;21.166;2022-10-23T05:37:00;12.90;99.90
25208;DHT22;13153;52.316;21.166;2022-10-23T05:39:27;12.90;99.90
25208;DHT22;13153;52.316;21.166;2022-10-23T05:41:53;12.90;99.90
25208;DHT22;13153;52.316;21.166;2022-10-23T05:44:19;13.00;99.90
25208;DHT22;13153;52.316;21.166;2022-10-23T05:46:46;13.00;99.90
25208;DHT22;13153;52.316;21.166;2022-10-23T05:49:11;13.00;99.90
25208;DHT22;13153;52.316;21.166;2022-10-23T05:51:38;13.00;99.90
25208;DHT22;13153;52.316;21.166;2022-10-23T05:54:05;13.00;99.90
25208;DHT22;13153;52.316;21.166;2022-10-23T05:56:37;13.00;99.90
25208;DHT22;13153;52.316;21.166;2022-10-23T05:59:07;13.00;99.90
25208;DHT22;13153;52.316;21.166;2022-10-23T06:01:33;13.10;99.90
25208;DHT22;13153;52.316;21.166;2022-10-23T06:03:59;13.10;99.90
25208;DHT22;13153;52.316;21.166;2022-10-23T06:06:26;13.10;99.90
25208;DHT22;13153;52.316;21.166;2022-10-23T06:08:52;13.10;99.90
25208;DHT22;13153;52.316;21.166;2022-10-23T06:11:18;13.10;99.90
25208;DHT22;13153;52.316;21.166;2022-10-23T06:13:45;13.10;99.90
25208;DHT22;13153;52.316;21.166;2022-10-23T06:16:17;13.10;99.90
25208;DHT22;13153;52.316;21.166;2022-10-23T06:18:45;13.10;99.90
25208;DHT22;13153;52.316;21.166;2022-10-23T06:21:12;13.10;99.90
25208;DHT22;13153;52.316;21.166;2022-10-23T06:23:40;13.10;99.90
25208;DHT22;13153;52.316;21.166;2022-10-23T06:26:09;13.20;99.90
25208;DHT22;13153;52.316;21.166;2022-10-23T06:28:38;13.20;99.90
25208;DHT22;13153;52.316;21.166;2022-10-23T06:31:05;13.20;99.90
25208;DHT22;13153;52.316;21.166;2022-10-23T06:33:33;13.20;99.90
25208;DHT22;13153;52.316;21.166;2022-10-23T06:36:00;13.10;99.90
25208;DHT22;13153;52.316;21.166;2022-10-23T06:38:26;13.10;99.90
25208;DHT22;13153;52.316;21.166;2022-10-23T06:40:53;13.10;99.90
25208;DHT22;13153;52.316;21.166;2022-10-23T06:43:20;13.10;99.90
25208;DHT22;13153;52.316;21.166;2022-10-23T06:45:46;13.10;99.90
25208;DHT22;13153;52.316;21.166;2022-10-23T06:48:12;13.10;99.90
25208;DHT22;13153;52.316;21.166;2022-10-23T06:50:38;13.10;99.90
25208;DHT22;13153;52.316;21.166;2022-10-23T06:53:05;13.20;99.90
25208;DHT22;13153;52.316;21.166;2022-10-23T06:55:31;13.20;99.90
25208;DHT22;13153;52.316;21.166;2022-10-23T06:57:57;13.20;99.90
25208;DHT22;13153;52.316;21.166;2022-10-23T07:00:24;13.20;99.90
25208;DHT22;13153;52.316;21.166;2022-10-23T07:02:51;13.10;99.90
25208;DHT22;13153;52.316;21.166;2022-10-23T07:05:18;13.20;99.90
25208;DHT22;13153;52.316;21.166;2022-10-23T07:07:44;13.20;99.90
25208;DHT22;13153;52.316;21.166;2022-10-23T07:10:10;13.20;99.90
25208;DHT22;13153;52.316;21.166;2022-10-23T07:12:36;13.20;99.90
25208;DHT22;13153;52.316;21.166;2022-10-23T07:15:02;13.20;99.90
25208;DHT22;13153;52.316;21.166;2022-10-23T07:17:28;13.20;99.90
25208;DHT22;13153;52.316;21.166;2022-10-23T07:19:54;13.20;99.90
25208;DHT22;13153;52.316;21.166;2022-10-23T07:22:20;13.20;99.90
25208;DHT22;13153;52.316;21.166;2022-10-23T07:24:45;13.30;99.90
25208;DHT22;13153;52.316;21.166;2022-10-23T07:27:11;13.30;99.90
25208;DHT22;13153;52.316;21.166;2022-10-23T07:29:37;13.40;99.90
25208;DHT22;13153;52.316;21.166;2022-10-23T07:32:03;13.50;99.90
25208;DHT22;13153;52.316;21.166;2022-10-23T07:34:29;13.50;99.90
25208;DHT22;13153;52.316;21.166;2022-10-23T07:36:56;13.60;99.90
25208;DHT22;13153;52.316;21.166;2022-10-23T07:39:22;13.60;99.90
25208;DHT22;13153;52.316;21.166;2022-10-23T07:41:48;13.70;99.90
25208;DHT22;13153;52.316;21.166;2022-10-23T07:44:14;13.80;99.90
25208;DHT22;13153;52.316;21.166;2022-10-23T07:46:40;13.70;99.90
25208;DHT22;13153;52.316;21.166;2022-10-23T07:49:06;13.70;99.90
25208;DHT22;13153;52.316;21.166;2022-10-23T07:51:32;13.70;99.90
25208;DHT22;13153;52.316;21.166;2022-10-23T07:53:57;13.70;99.90
25208;DHT22;13153;52.316;21.166;2022-10-23T07:56:25;13.70;99.90
25208;DHT22;13153;52.316;21.166;2022-10-23T07:58:56;13.70;99.90
25208;DHT22;13153;52.316;21.166;2022-10-23T08:01:29;13.80;99.90
25208;DHT22;13153;52.316;21.166;2022-10-23T08:03:58;13.80;99.90
25208;DHT22;13153;52.316;21.166;2022-10-23T08:06:25;13.90;99.90
25208;DHT22;13153;52.316;21.166;2022-10-23T08:08:51;13.90;99.90
25208;DHT22;13153;52.316;21.166;2022-10-23T08:11:20;13.90;99.90
25208;DHT22;13153;52.316;21.166;2022-10-23T08:13:53;14.00;99.90
25208;DHT22;13153;52.316;21.166;2022-10-23T08:16:20;14.00;99.90
25208;DHT22;13153;52.316;21.166;2022-10-23T08:18:47;14.10;99.90
25208;DHT22;13153;52.316;21.166;2022-10-23T08:21:14;14.20;99.90
25208;DHT22;13153;52.316;21.166;2022-10-23T08:23:41;14.30;99.90
25208;DHT22;13153;52.316;21.166;2022-10-23T08:26:08;14.60;99.90
25208;DHT22;13153;52.316;21.166;2022-10-23T08:28:34;14.80;99.90
25208;DHT22;13153;52.316;21.166;2022-10-23T08:31:10;14.90;99.90
25208;DHT22;13153;52.316;21.166;2022-10-23T08:33:38;15.00;99.90
25208;DHT22;13153;52.316;21.166;2022-10-23T08:36:05;15.00;99.90
25208;DHT22;13153;52.316;21.166;2022-10-23T08:38:43;15.00;99.90
25208;DHT22;13153;52.316;21.166;2022-10-23T08:41:42;15.00;99.90
25208;DHT22;13153;52.316;21.166;2022-10-23T08:47:17;15.00;99.90
25208;DHT22;13153;52.316;21.166;2022-10-23T08:50:02;15.00;99.90
25208;DHT22;13153;52.316;21.166;2022-10-23T08:52:49;15.00;99.90
25208;DHT22;13153;52.316;21.166;2022-10-23T08:55:34;15.00;99.90
25208;DHT22;13153;52.316;21.166;2022-10-23T08:58:04;15.00;99.90
25208;DHT22;13153;52.316;21.166;2022-10-23T09:00:33;15.10;99.90
25208;DHT22;13153;52.316;21.166;2022-10-23T09:03:04;15.10;99.90
25208;DHT22;13153;52.316;21.166;2022-10-23T09:05:34;15.20;99.90
25208;DHT22;13153;52.316;21.166;2022-10-23T09:08:58;15.10;99.90
25208;DHT22;13153;52.316;21.166;2022-10-23T09:11:31;15.10;99.90
25208;DHT22;13153;52.316;21.166;2022-10-23T09:14:38;15.20;99.90
25208;DHT22;13153;52.316;21.166;2022-10-23T09:17:24;15.20;99.90
25208;DHT22;13153;52.316;21.166;2022-10-23T09:20:06;15.10;99.90
25208;DHT22;13153;52.316;21.166;2022-10-23T09:22:32;15.10;99.90
25208;DHT22;13153;52.316;21.166;2022-10-23T09:24:58;15.00;99.90
25208;DHT22;13153;52.316;21.166;2022-10-23T09:27:23;15.00;99.90
25208;DHT22;13153;52.316;21.166;2022-10-23T09:29:53;15.00;99.90
25208;DHT22;13153;52.316;21.166;2022-10-23T09:32:32;15.00;99.90
25208;DHT22;13153;52.316;21.166;2022-10-23T09:35:00;15.00;99.90
25208;DHT22;13153;52.316;21.166;2022-10-23T09:37:28;15.00;99.90
25208;DHT22;13153;52.316;21.166;2022-10-23T09:43:09;15.00;99.90
25208;DHT22;13153;52.316;21.166;2022-10-23T09:45:41;15.10;99.90
25208;DHT22;13153;52.316;21.166;2022-10-23T09:48:19;15.10;99.90
25208;DHT22;13153;52.316;21.166;2022-10-23T09:50:59;15.10;99.90
25208;DHT22;13153;52.316;21.166;2022-10-23T09:53:58;15.20;99.90
25208;DHT22;13153;52.316;21.166;2022-10-23T09:56:31;15.20;99.90
25208;DHT22;13153;52.316;21.166;2022-10-23T10:01:46;15.20;99.90
25208;DHT22;13153;52.316;21.166;2022-10-23T10:04:12;15.20;99.90
25208;DHT22;13153;52.316;21.166;2022-10-23T10:06:38;15.20;99.90
25208;DHT22;13153;52.316;21.166;2022-10-23T10:09:14;15.20;99.90
25208;DHT22;13153;52.316;21.166;2022-10-23T10:11:51;15.10;99.90
25208;DHT22;13153;52.316;21.166;2022-10-23T10:23:01;15.10;99.90
25208;DHT22;13153;52.316;21.166;2022-10-23T10:40:39;15.00;99.90
25208;DHT22;13153;52.316;21.166;2022-10-23T10:43:10;15.00;99.90
25208;DHT22;13153;52.316;21.166;2022-10-23T10:45:54;15.00;99.90
25208;DHT22;13153;52.316;21.166;2022-10-23T10:48:41;15.00;99.90
25208;DHT22;13153;52.316;21.166;2022-10-23T10:51:20;15.00;99.90
25208;DHT22;13153;52.316;21.166;2022-10-23T10:56:46;15.00;99.90
25208;DHT22;13153;52.316;21.166;2022-10-23T10:59:22;15.00;99.90
25208;DHT22;13153;52.316;21.166;2022-10-23T11:01:56;15.00;99.90
25208;DHT22;13153;52.316;21.166;2022-10-23T11:04:39;15.00;99.90
25208;DHT22;13153;52.316;21.166;2022-10-23T11:07:14;15.00;99.90
25208;DHT22;13153;52.316;21.166;2022-10-23T11:09:45;15.10;99.90
25208;DHT22;13153;52.316;21.166;2022-10-23T11:12:22;15.10;99.90
25208;DHT22;13153;52.316;21.166;2022-10-23T11:14:51;15.10;99.90
25208;DHT22;13153;52.316;21.166;2022-10-23T11:26:25;15.20;99.90
25208;DHT22;13153;52.316;21.166;2022-10-23T11:34:49;15.30;99.90
25208;DHT22;13153;52.316;21.166;2022-10-23T11:37:34;15.30;99.90
25208;DHT22;13153;52.316;21.166;2022-10-23T11:42:33;15.30;99.90
25208;DHT22;13153;52.316;21.166;2022-10-23T11:58:51;15.50;99.90
25208;DHT22;13153;52.316;21.166;2022-10-23T12:09:24;15.80;99.90
25208;DHT22;13153;52.316;21.166;2022-10-23T12:14:44;16.00;99.90
25208;DHT22;13153;52.316;21.166;2022-10-23T12:19:49;16.30;99.90
25208;DHT22;13153;52.316;21.166;2022-10-23T12:22:17;16.30;99.90
25208;DHT22;13153;52.316;21.166;2022-10-23T12:37:45;15.80;99.90
25208;DHT22;13153;52.316;21.166;2022-10-23T12:40:22;15.70;99.90
25208;DHT22;13153;52.316;21.166;2022-10-23T12:42:56;15.60;99.90
25208;DHT22;13153;52.316;21.166;2022-10-23T12:45:33;15.50;99.90
25208;DHT22;13153;52.316;21.166;2022-10-23T12:48:04;15.50;99.90
25208;DHT22;13153;52.316;21.166;2022-10-23T12:50:33;15.50;99.90
25208;DHT22;13153;52.316;21.166;2022-10-23T12:53:01;15.40;99.90
25208;DHT22;13153;52.316;21.166;2022-10-23T12:55:53;15.40;99.90
25208;DHT22;13153;52.316;21.166;2022-10-23T12:58:33;15.50;99.90
25208;DHT22;13153;52.316;21.166;2022-10-23T13:01:02;15.50;99.90
25208;DHT22;13153;52.316;21.166;2022-10-23T13:03:30;15.50;99.90
25208;DHT22;13153;52.316;21.166;2022-10-23T13:05:59;15.50;99.90
25208;DHT22;13153;52.316;21.166;2022-10-23T13:08:33;15.50;99.90
25208;DHT22;13153;52.316;21.166;2022-10-23T13:11:05;15.40;99.90
25208;DHT22;13153;52.316;21.166;2022-10-23T13:13:34;15.40;99.90
25208;DHT22;13153;52.316;21.166;2022-10-23T13:16:00;15.40;99.90
25208;DHT22;13153;52.316;21.166;2022-10-23T13:18:26;15.40;99.90
25208;DHT22;13153;52.316;21.166;2022-10-23T13:23:28;15.30;99.90
25208;DHT22;13153;52.316;21.166;2022-10-23T13:26:03;15.30;99.90
25208;DHT22;13153;52.316;21.166;2022-10-23T13:28:44;15.30;99.90
25208;DHT22;13153;52.316;21.166;2022-10-23T13:33:39;15.20;99.90
25208;DHT22;13153;52.316;21.166;2022-10-23T13:38:43;15.30;99.90
25208;DHT22;13153;52.316;21.166;2022-10-23T13:41:16;15.40;99.90
25208;DHT22;13153;52.316;21.166;2022-10-23T13:43:44;15.40;99.90
25208;DHT22;13153;52.316;21.166;2022-10-23T13:46:16;15.40;99.90
25208;DHT22;13153;52.316;21.166;2022-10-23T13:48:44;15.40;99.90
25208;DHT22;13153;52.316;21.166;2022-10-23T13:51:19;15.40;99.90
25208;DHT22;13153;52.316;21.166;2022-10-23T13:53:47;15.30;99.90
25208;DHT22;13153;52.316;21.166;2022-10-23T13:56:15;15.30;99.90
25208;DHT22;13153;52.316;21.166;2022-10-23T13:58:42;15.20;99.90
25208;DHT22;13153;52.316;21.166;2022-10-23T14:01:42;15.20;99.90
25208;DHT22;13153;52.316;21.166;2022-10-23T14:04:08;15.30;99.90
25208;DHT22;13153;52.316;21.166;2022-10-23T14:06:36;15.30;99.90
25208;DHT22;13153;52.316;21.166;2022-10-23T14:09:07;15.30;99.90
25208;DHT22;13153;52.316;21.166;2022-10-23T14:11:37;15.30;99.90
25208;DHT22;13153;52.316;21.166;2022-10-23T14:14:04;15.30;99.90
25208;DHT22;13153;52.316;21.166;2022-10-23T14:16:30;15.30;99.90
25208;DHT22;13153;52.316;21.166;2022-10-23T14:18:55;15.30;99.90
25208;DHT22;13153;52.316;21.166;2022-10-23T14:21:23;15.20;99.90
25208;DHT22;13153;52.316;21.166;2022-10-23T14:23:51;15.20;99.90
25208;DHT22;13153;52.316;21.166;2022-10-23T14:26:21;15.20;99.90
25208;DHT22;13153;52.316;21.166;2022-10-23T14:28:51;15.20;99.90
25208;DHT22;13153;52.316;21.166;2022-10-23T14:31:21;15.20;99.90
25208;DHT22;13153;52.316;21.166;2022-10-23T14:33:52;15.20;99.90
25208;DHT22;13153;52.316;21.166;2022-10-23T14:36:21;15.20;99.90
25208;DHT22;13153;52.316;21.166;2022-10-23T14:38:47;15.10;99.90
25208;DHT22;13153;52.316;21.166;2022-10-23T14:41:15;15.10;99.90
25208;DHT22;13153;52.316;21.166;2022-10-23T14:43:42;15.10;99.90
25208;DHT22;13153;52.316;21.166;2022-10-23T14:46:09;15.10;99.90
25208;DHT22;13153;52.316;21.166;2022-10-23T14:48:38;15.00;99.90
25208;DHT22;13153;52.316;21.166;2022-10-23T14:51:06;15.00;99.90
25208;DHT22;13153;52.316;21.166;2022-10-23T14:53:40;15.00;99.90
25208;DHT22;13153;52.316;21.166;2022-10-23T14:56:06;15.00;99.90
25208;DHT22;13153;52.316;21.166;2022-10-23T14:58:32;15.00;99.90
25208;DHT22;13153;52.316;21.166;2022-10-23T15:00:59;14.90;99.90
25208;DHT22;13153;52.316;21.166;2022-10-23T15:03:29;14.90;99.90
25208;DHT22;13153;52.316;21.166;2022-10-23T15:05:54;14.90;99.90
25208;DHT22;13153;52.316;21.166;2022-10-23T15:08:21;14.90;99.90
25208;DHT22;13153;52.316;21.166;2022-10-23T15:10:48;14.90;99.90
25208;DHT22;13153;52.316;21.166;2022-10-23T15:13:14;14.80;99.90
25208;DHT22;13153;52.316;21.166;2022-10-23T15:15:40;14.80;99.90
25208;DHT22;13153;52.316;21.166;2022-10-23T15:18:06;14.80;99.90
25208;DHT22;13153;52.316;21.166;2022-10-23T15:20:32;14.80;99.90
25208;DHT22;13153;52.316;21.166;2022-10-23T15:22:57;14.80;99.90
25208;DHT22;13153;52.316;21.166;2022-10-23T15:25:25;14.80;99.90
25208;DHT22;13153;52.316;21.166;2022-10-23T15:27:51;14.80;99.90
25208;DHT22;13153;52.316;21.166;2022-10-23T15:30:16;14.80;99.90
25208;DHT22;13153;52.316;21.166;2022-10-23T15:32:42;14.80;99.90
25208;DHT22;13153;52.316;21.166;2022-10-23T15:35:09;14.80;99.90
25208;DHT22;13153;52.316;21.166;2022-10-23T15:37:35;14.80;99.90
25208;DHT22;13153;52.316;21.166;2022-10-23T15:40:00;14.80;99.90
25208;DHT22;13153;52.316;21.166;2022-10-23T15:42:26;14.80;99.90
25208;DHT22;13153;52.316;21.166;2022-10-23T15:44:52;14.80;99.90
25208;DHT22;13153;52.316;21.166;2022-10-23T15:47:18;14.70;99.90
25208;DHT22;13153;52.316;21.166;2022-10-23T15:49:44;14.70;99.90
25208;DHT22;13153;52.316;21.166;2022-10-23T15:52:09;14.70;99.90
25208;DHT22;13153;52.316;21.166;2022-10-23T15:54:35;14.70;99.90
25208;DHT22;13153;52.316;21.166;2022-10-23T15:57:02;14.70;99.90
25208;DHT22;13153;52.316;21.166;2022-10-23T15:59:29;14.70;99.90
25208;DHT22;13153;52.316;21.166;2022-10-23T16:01:56;14.70;99.90
25208;DHT22;13153;52.316;21.166;2022-10-23T16:04:23;14.70;99.90
25208;DHT22;13153;52.316;21.166;2022-10-23T16:06:49;14.70;99.90
25208;DHT22;13153;52.316;21.166;2022-10-23T16:09:15;14.70;99.90
25208;DHT22;13153;52.316;21.166;2022-10-23T16:11:42;14.70;99.90
25208;DHT22;13153;52.316;21.166;2022-10-23T16:14:12;14.70;99.90
25208;DHT22;13153;52.316;21.166;2022-10-23T16:16:40;14.70;99.90
25208;DHT22;13153;52.316;21.166;2022-10-23T16:19:06;14.70;99.90
25208;DHT22;13153;52.316;21.166;2022-10-23T16:21:35;14.70;99.90
25208;DHT22;13153;52.316;21.166;2022-10-23T16:24:04;14.70;99.90
25208;DHT22;13153;52.316;21.166;2022-10-23T16:26:32;14.60;99.90
25208;DHT22;13153;52.316;21.166;2022-10-23T16:29:01;14.60;99.90
25208;DHT22;13153;52.316;21.166;2022-10-23T16:31:28;14.60;99.90
25208;DHT22;13153;52.316;21.166;2022-10-23T16:33:57;14.60;99.90
25208;DHT22;13153;52.316;21.166;2022-10-23T16:36:24;14.60;99.90
25208;DHT22;13153;52.316;21.166;2022-10-23T16:38:51;14.60;99.90
25208;DHT22;13153;52.316;21.166;2022-10-23T16:41:17;14.60;99.90
25208;DHT22;13153;52.316;21.166;2022-10-23T16:43:42;14.60;99.90
25208;DHT22;13153;52.316;21.166;2022-10-23T16:46:19;14.60;99.90
25208;DHT22;13153;52.316;21.166;2022-10-23T16:48:46;14.60;99.90
25208;DHT22;13153;52.316;21.166;2022-10-23T16:51:17;14.60;99.90
25208;DHT22;13153;52.316;21.166;2022-10-23T16:53:47;14.60;99.90
25208;DHT22;13153;52.316;21.166;2022-10-23T16:56:16;14.60;99.90
25208;DHT22;13153;52.316;21.166;2022-10-23T16:58:44;14.50;99.90
25208;DHT22;13153;52.316;21.166;2022-10-23T17:01:16;14.50;99.90
25208;DHT22;13153;52.316;21.166;2022-10-23T17:03:45;14.50;99.90
25208;DHT22;13153;52.316;21.166;2022-10-23T17:06:15;14.50;99.90
25208;DHT22;13153;52.316;21.166;2022-10-23T17:08:43;14.50;99.90
25208;DHT22;13153;52.316;21.166;2022-10-23T17:11:13;14.50;99.90
25208;DHT22;13153;52.316;21.166;2022-10-23T17:13:54;14.50;99.90
25208;DHT22;13153;52.316;21.166;2022-10-23T17:16:38;14.40;99.90
25208;DHT22;13153;52.316;21.166;2022-10-23T17:19:12;14.40;99.90
25208;DHT22;13153;52.316;21.166;2022-10-23T17:21:40;14.40;99.90
25208;DHT22;13153;52.316;21.166;2022-10-23T17:24:07;14.40;99.90
25208;DHT22;13153;52.316;21.166;2022-10-23T17:26:34;14.40;99.90
25208;DHT22;13153;52.316;21.166;2022-10-23T17:29:02;14.30;99.90
25208;DHT22;13153;52.316;21.166;2022-10-23T17:31:32;14.30;99.90
25208;DHT22;13153;52.316;21.166;2022-10-23T17:34:02;14.30;99.90
25208;DHT22;13153;52.316;21.166;2022-10-23T17:36:33;14.30;99.90
25208;DHT22;13153;52.316;21.166;2022-10-23T17:39:03;14.30;99.90
25208;DHT22;13153;52.316;21.166;2022-10-23T17:41:30;14.30;99.90
25208;DHT22;13153;52.316;21.166;2022-10-23T17:43:57;14.20;99.90
25208;DHT22;13153;52.316;21.166;2022-10-23T17:46:24;14.30;99.90